Time;durP1;ratioP1;P1;durP2;ratioP2;P2;SDS_P1;SDS_P2;PMS_P1;PMS_P2;Temp;Humidity;BMP_temperature;BMP_pressure;BME280_temperature;BME280_humidity;BME280_pressure;Samples;Min_cycle;Max_cycle;Signal;HPM_P1;HPM_P2
2022/11/29 00:00:32;;;;;;;36.23;26.27;;;;;;;4.83;100.00;101099.34;5056691;28;20304;-60
2022/11/29 00:02:58;;;;;;;37.23;27.90;;;;;;;4.89;100.00;101102.13;5070029;28;20230;-68
2022/11/29 00:05:25;;;;;;;35.33;25.00;;;;;;;4.91;100.00;101097.84;5079221;28;20250;-61
2022/11/29 00:07:52;;;;;;;32.60;24.50;;;;;;;5.45;100.00;101102.75;5075755;28;20331;-61
2022/11/29 00:10:20;;;;;;;33.23;23.47;;;;;;;5.23;100.00;101096.13;5064522;28;20315;-61
2022/11/29 00:12:46;;;;;;;28.73;21.93;;;;;;;5.05;100.00;101104.28;5056661;28;20274;-61
2022/11/29 00:15:13;;;;;;;31.60;22.83;;;;;;;5.05;100.00;101104.28;5045834;28;20252;-60
2022/11/29 00:17:40;;;;;;;34.07;24.13;;;;;;;4.68;100.00;101112.81;5055209;28;20313;-59
2022/11/29 00:20:07;;;;;;;34.50;23.10;;;;;;;4.45;100.00;101109.50;5064041;28;20326;-60
2022/11/29 00:22:34;;;;;;;32.43;22.87;;;;;;;4.65;100.00;101100.59;5056457;28;20674;-61
2022/11/29 00:25:01;;;;;;;33.10;22.37;;;;;;;4.71;100.00;101105.97;5056589;28;20259;-60
2022/11/29 00:27:29;;;;;;;33.33;23.23;;;;;;;4.99;100.00;101112.84;5053375;28;20730;-61
2022/11/29 00:29:55;;;;;;;29.17;21.93;;;;;;;4.74;100.00;101116.47;5054651;28;20314;-61
2022/11/29 00:32:22;;;;;;;33.60;21.83;;;;;;;4.77;100.00;101111.34;5067558;28;20846;-60
2022/11/29 00:34:49;;;;;;;31.63;22.50;;;;;;;4.74;100.00;101111.25;5055858;28;20281;-60
2022/11/29 00:37:15;;;;;;;25.67;20.13;;;;;;;4.63;100.00;101112.66;5052823;28;20744;-60
2022/11/29 00:39:42;;;;;;;28.50;20.20;;;;;;;4.67;100.00;101114.53;5048543;28;20232;-65
2022/11/29 00:42:09;;;;;;;30.17;21.53;;;;;;;4.90;100.00;101106.47;5060915;28;20231;-60
2022/11/29 00:44:37;;;;;;;32.33;20.63;;;;;;;4.81;100.00;101114.00;5058888;28;20322;-60
2022/11/29 00:47:03;;;;;;;30.13;20.33;;;;;;;4.74;100.00;101110.38;5067726;28;20242;-60
2022/11/29 00:49:30;;;;;;;28.93;21.40;;;;;;;4.78;100.00;101107.91;5072187;28;20258;-60
2022/11/29 00:51:57;;;;;;;31.70;20.90;;;;;;;4.58;100.00;101108.16;5075491;28;20314;-62
2022/11/29 00:54:23;;;;;;;30.23;21.23;;;;;;;4.60;100.00;101112.59;5066954;28;20230;-60
2022/11/29 00:56:50;;;;;;;33.63;22.17;;;;;;;4.25;100.00;101109.81;5062715;28;20261;-62
2022/11/29 00:59:16;;;;;;;28.67;21.20;;;;;;;4.44;100.00;101115.56;5078606;28;20269;-63
2022/11/29 01:01:44;;;;;;;32.90;24.17;;;;;;;4.20;100.00;101108.78;5074861;28;20620;-61
2022/11/29 01:04:11;;;;;;;31.07;21.07;;;;;;;4.20;100.00;101111.38;5072795;28;20599;-60
2022/11/29 01:06:38;;;;;;;27.87;19.67;;;;;;;4.39;100.00;101101.53;5080003;28;20310;-60
2022/11/29 01:09:05;;;;;;;32.87;22.30;;;;;;;4.33;100.00;101111.75;5064405;28;20358;-61
2022/11/29 01:11:32;;;;;;;28.57;21.00;;;;;;;4.61;100.00;101106.53;5054423;28;20306;-60
2022/11/29 01:14:01;;;;;;;28.57;19.93;;;;;;;4.85;100.00;101103.75;5053628;28;20341;-59
2022/11/29 01:16:30;;;;;;;31.07;21.80;;;;;;;5.17;100.00;101109.84;5055577;28;20319;-61
2022/11/29 01:18:59;;;;;;;30.87;21.30;;;;;;;5.14;100.00;101104.56;5067871;28;20235;-60
2022/11/29 01:21:26;;;;;;;30.87;21.57;;;;;;;4.89;100.00;101103.00;5061457;28;20311;-61
2022/11/29 01:23:53;;;;;;;28.33;21.57;;;;;;;5.07;100.00;101102.63;5063318;28;20609;-59
2022/11/29 01:26:23;;;;;;;34.50;22.17;;;;;;;4.50;100.00;101115.75;5050355;28;20223;-60
2022/11/29 01:28:51;;;;;;;28.27;21.30;;;;;;;4.49;100.00;101113.97;5060167;28;20329;-60
2022/11/29 01:31:20;;;;;;;30.97;21.90;;;;;;;4.71;100.00;101116.38;5066169;28;20239;-60
2022/11/29 01:33:48;;;;;;;28.87;20.73;;;;;;;5.23;100.00;101106.53;5061426;28;20671;-58
2022/11/29 01:36:16;;;;;;;29.13;21.27;;;;;;;4.87;100.00;101116.81;5061644;28;20227;-61
2022/11/29 01:38:43;;;;;;;29.93;21.63;;;;;;;4.92;100.00;101108.28;5073885;28;20233;-60
2022/11/29 01:41:13;;;;;;;32.53;23.07;;;;;;;4.37;100.00;101121.41;5051822;28;20289;-60
2022/11/29 01:43:59;;;;;;;36.97;23.50;;;;;;;4.37;100.00;101116.22;5059916;28;20821;-60
2022/11/29 01:46:27;;;;;;;31.83;23.07;;;;;;;4.38;100.00;101110.16;5067781;28;20287;-61
2022/11/29 01:48:57;;;;;;;29.27;21.77;;;;;;;4.63;100.00;101102.25;5068287;28;20227;-61
2022/11/29 01:51:27;;;;;;;34.67;20.67;;;;;;;4.51;100.00;101101.91;5058782;28;26704;-61
2022/11/29 01:53:54;;;;;;;27.67;19.73;;;;;;;4.65;100.00;101105.78;5080333;28;20253;-60
2022/11/29 01:56:21;;;;;;;30.23;21.33;;;;;;;4.74;100.00;101110.38;5081627;28;20267;-62
2022/11/29 01:58:48;;;;;;;28.87;19.07;;;;;;;5.15;100.00;101102.81;5058131;28;20247;-61
2022/11/29 02:01:15;;;;;;;30.47;21.67;;;;;;;4.85;100.00;101108.97;5065892;28;20280;-61
2022/11/29 02:03:42;;;;;;;27.53;20.43;;;;;;;5.05;100.00;101104.28;5078505;28;20284;-60
2022/11/29 02:06:09;;;;;;;32.20;23.27;;;;;;;4.89;100.00;101109.94;5063280;28;20231;-61
2022/11/29 02:08:40;;;;;;;29.77;21.77;;;;;;;4.90;100.00;101111.69;5077393;28;20288;-61
2022/11/29 02:11:20;;;;;;;31.40;21.23;;;;;;;4.86;100.00;101104.63;5067300;28;20234;-60
2022/11/29 02:13:54;;;;;;;29.77;20.33;;;;;;;4.51;100.00;101109.69;5070539;28;20318;-61
2022/11/29 02:16:24;;;;;;;25.10;19.53;;;;;;;4.54;100.00;101108.06;5070817;28;20223;-61
2022/11/29 02:18:59;;;;;;;30.87;21.83;;;;;;;4.46;100.00;101111.31;5060258;28;20723;-65
2022/11/29 02:21:37;;;;;;;30.40;22.13;;;;;;;4.28;100.00;101107.31;5066419;28;20337;-61
2022/11/29 02:24:33;;;;;;;29.13;21.90;;;;;;;4.54;100.00;101115.00;5059276;28;20775;-61
2022/11/29 02:27:11;;;;;;;32.40;22.77;;;;;;;4.53;100.00;101108.03;5059112;28;20325;-61
2022/11/29 02:29:58;;;;;;;33.37;21.47;;;;;;;4.38;100.00;101111.03;5063888;28;20246;-61
2022/11/29 02:33:13;;;;;;;30.63;22.40;;;;;;;4.37;100.00;101114.50;5068446;28;20225;-61
2022/11/29 02:35:59;;;;;;;31.37;21.33;;;;;;;4.57;100.00;101128.09;5062116;28;20246;-61
2022/11/29 02:38:36;;;;;;;32.20;22.20;;;;;;;4.57;100.00;101130.69;5055079;28;20370;-61
2022/11/29 02:41:28;;;;;;;33.10;21.93;;;;;;;4.43;100.00;101125.06;5079071;28;20314;-61
2022/11/29 02:44:17;;;;;;;32.70;22.50;;;;;;;4.41;100.00;101116.34;5069233;28;20629;-60
2022/11/29 02:47:06;;;;;;;32.23;21.83;;;;;;;4.35;100.00;101126.53;5057491;28;20234;-61
2022/11/29 02:49:45;;;;;;;26.83;20.50;;;;;;;4.61;100.00;101121.25;5068581;28;20306;-60
2022/11/29 02:52:18;;;;;;;36.87;24.37;;;;;;;4.26;100.00;101119.38;5065127;28;20245;-61
2022/11/29 02:54:48;;;;;;;30.40;21.00;;;;;;;4.56;100.00;101126.31;5074629;28;20718;-60
2022/11/29 02:57:22;;;;;;;30.93;21.40;;;;;;;4.53;100.00;101121.91;5078031;28;20325;-60
2022/11/29 02:59:55;;;;;;;32.90;23.83;;;;;;;4.52;100.00;101125.34;5077767;28;20219;-60
2022/11/29 03:02:28;;;;;;;30.50;21.90;;;;;;;4.75;100.00;101128.63;5080774;28;20592;-60
2022/11/29 03:05:01;;;;;;;27.63;21.50;;;;;;;4.61;100.00;101119.53;5076919;28;20248;-60
2022/11/29 03:07:37;;;;;;;32.67;21.90;;;;;;;4.58;100.00;101132.44;5054150;28;20324;-61
2022/11/29 03:10:09;;;;;;;35.00;23.77;;;;;;;4.31;100.00;101125.56;5064339;28;20310;-62
2022/11/29 03:12:40;;;;;;;37.80;23.73;;;;;;;4.45;100.00;101131.19;5069425;28;20233;-61
2022/11/29 03:15:19;;;;;;;32.07;22.80;;;;;;;4.53;100.00;101136.66;5061672;28;20235;-60
2022/11/29 03:17:57;;;;;;;31.93;21.47;;;;;;;4.76;100.00;101127.78;5054472;28;20241;-60
2022/11/29 03:20:34;;;;;;;31.30;22.90;;;;;;;4.39;100.00;101132.72;5064550;28;20248;-60
2022/11/29 03:23:15;;;;;;;32.63;23.77;;;;;;;4.44;100.00;101136.34;5064394;28;20250;-61
2022/11/29 03:25:44;;;;;;;31.00;22.10;;;;;;;4.74;100.00;101142.47;5067221;28;20409;-61
2022/11/29 03:28:15;;;;;;;32.83;22.90;;;;;;;4.71;100.00;101136.31;5061164;28;20341;-60
2022/11/29 03:30:49;;;;;;;32.57;22.20;;;;;;;4.26;100.00;101144.47;5072856;28;20337;-60
2022/11/29 03:33:22;;;;;;;36.83;24.47;;;;;;;4.46;100.00;101150.28;5064669;28;20231;-61
2022/11/29 03:35:55;;;;;;;35.83;23.87;;;;;;;4.58;100.00;101150.66;5070810;28;20235;-61
2022/11/29 03:38:30;;;;;;;32.07;22.83;;;;;;;4.43;100.00;101145.00;5065916;28;20234;-60
2022/11/29 03:41:01;;;;;;;31.30;21.63;;;;;;;4.83;100.00;101147.03;5065880;28;20222;-61
2022/11/29 03:43:34;;;;;;;37.10;22.93;;;;;;;4.63;100.00;101151.66;5066609;28;20246;-59
2022/11/29 03:46:03;;;;;;;34.53;23.37;;;;;;;4.78;100.00;101154.72;5069153;28;20230;-61
2022/11/29 03:48:34;;;;;;;30.37;21.50;;;;;;;4.65;100.00;101163.00;5060590;28;20247;-60
2022/11/29 03:51:05;;;;;;;31.83;22.20;;;;;;;4.75;100.00;101158.97;5053766;28;20499;-60
2022/11/29 03:53:39;;;;;;;31.30;22.70;;;;;;;4.66;100.00;101159.56;5057781;28;20603;-61
2022/11/29 03:56:23;;;;;;;34.70;23.73;;;;;;;4.84;100.00;101159.22;5063132;28;20241;-62
2022/11/29 03:58:55;;;;;;;33.60;22.53;;;;;;;4.78;100.00;101153.84;5056591;28;20262;-61
2022/11/29 04:02:01;;;;;;;34.30;23.87;;;;;;;4.83;100.00;101153.97;5053957;28;20237;-60
2022/11/29 04:05:00;;;;;;;34.00;23.33;;;;;;;4.62;100.00;101152.50;5059201;28;20272;-61
2022/11/29 04:07:48;;;;;;;31.97;21.10;;;;;;;4.61;100.00;101150.75;5060070;28;20239;-61
2022/11/29 04:10:34;;;;;;;33.97;24.57;;;;;;;4.25;100.00;101156.59;5056628;28;20251;-61
2022/11/29 04:13:21;;;;;;;33.73;23.70;;;;;;;4.12;100.00;101154.44;5052695;28;20740;-60
2022/11/29 04:16:10;;;;;;;35.90;24.73;;;;;;;4.43;100.00;101161.47;5058386;28;20291;-59
2022/11/29 04:18:59;;;;;;;33.90;24.50;;;;;;;4.19;100.00;101155.50;5060072;28;20233;-60
2022/11/29 04:21:39;;;;;;;36.60;23.70;;;;;;;4.36;100.00;101156.03;5061683;28;20249;-60
2022/11/29 04:24:43;;;;;;;37.57;23.10;;;;;;;4.29;100.00;101157.56;5062806;28;20231;-60
2022/11/29 04:27:32;;;;;;;35.90;23.07;;;;;;;4.13;100.00;101157.91;5059525;28;20223;-61
2022/11/29 04:30:07;;;;;;;34.90;23.23;;;;;;;4.13;100.00;101156.19;5063875;28;20226;-60
2022/11/29 04:33:20;;;;;;;35.07;23.80;;;;;;;4.44;100.00;101151.94;5075724;28;20233;-61
2022/11/29 04:36:12;;;;;;;31.30;22.17;;;;;;;4.72;100.00;101162.34;5070597;28;20262;-60
2022/11/29 04:39:18;;;;;;;33.23;23.27;;;;;;;4.60;100.00;101159.41;5058226;28;20282;-60
2022/11/29 04:42:09;;;;;;;29.53;21.13;;;;;;;5.10;100.00;101166.91;5050468;28;20218;-61
2022/11/29 04:44:53;;;;;;;33.87;24.13;;;;;;;4.78;100.00;101156.44;5071028;28;20235;-61
2022/11/29 04:47:47;;;;;;;33.27;23.57;;;;;;;4.59;100.00;101164.53;5071634;28;20605;-61
2022/11/29 04:50:23;;;;;;;34.17;22.50;;;;;;;4.53;100.00;101170.44;5076848;28;20262;-61
2022/11/29 04:53:17;;;;;;;38.37;25.53;;;;;;;4.44;100.00;101164.94;5070959;28;20329;-60
2022/11/29 04:55:49;;;;;;;38.43;24.47;;;;;;;4.49;100.00;101171.16;5070383;28;20739;-60
2022/11/29 04:58:21;;;;;;;32.57;21.93;;;;;;;4.72;100.00;101174.47;5070289;28;20234;-60
2022/11/29 05:00:54;;;;;;;30.50;21.83;;;;;;;4.79;100.00;101172.09;5075462;28;20231;-60
2022/11/29 05:03:32;;;;;;;35.70;23.40;;;;;;;4.44;100.00;101168.44;5069726;28;20300;-60
2022/11/29 05:06:05;;;;;;;33.53;23.57;;;;;;;4.49;100.00;101176.34;5076323;28;20288;-61
2022/11/29 05:08:41;;;;;;;32.53;22.87;;;;;;;4.35;100.00;101180.25;5075435;28;21346;-60
2022/11/29 05:11:16;;;;;;;34.00;21.90;;;;;;;4.27;100.00;101177.41;5069112;28;20320;-60
2022/11/29 05:13:49;;;;;;;34.83;23.03;;;;;;;4.46;100.00;101173.69;5073128;28;20770;-60
2022/11/29 05:16:30;;;;;;;37.40;22.03;;;;;;;4.86;100.00;101177.47;5079252;28;20341;-61
2022/11/29 05:19:27;;;;;;;28.63;21.77;;;;;;;4.97;100.00;101179.53;5072533;28;20265;-61
2022/11/29 05:22:01;;;;;;;30.70;23.20;;;;;;;4.59;100.00;101183.59;5054723;28;21118;-60
2022/11/29 05:24:41;;;;;;;33.13;23.10;;;;;;;4.82;100.00;101186.03;5056196;28;20249;-59
2022/11/29 05:27:16;;;;;;;36.27;22.30;;;;;;;4.77;100.00;101181.59;5061495;28;20231;-60
2022/11/29 05:29:48;;;;;;;37.90;23.17;;;;;;;4.15;100.00;101188.31;5071095;28;20226;-60
2022/11/29 05:32:28;;;;;;;33.90;23.40;;;;;;;4.70;100.00;101192.66;5073862;28;20251;-60
2022/11/29 05:35:25;;;;;;;32.10;22.83;;;;;;;4.50;100.00;101201.56;5074747;28;20245;-61
2022/11/29 05:37:53;;;;;;;28.83;21.60;;;;;;;4.98;100.00;101202.16;5067850;28;20246;-61
2022/11/29 05:40:43;;;;;;;35.40;23.27;;;;;;;4.74;100.00;101209.22;5085127;28;20225;-60
2022/11/29 05:43:18;;;;;;;33.83;23.33;;;;;;;4.86;100.00;101208.69;5076445;28;20729;-65
2022/11/29 05:45:50;;;;;;;33.37;22.93;;;;;;;4.64;100.00;101210.66;5082057;28;20249;-60
2022/11/29 05:48:24;;;;;;;34.43;22.90;;;;;;;4.79;100.00;101211.09;5068659;28;20715;-60
2022/11/29 05:51:05;;;;;;;33.93;22.90;;;;;;;4.85;100.00;101217.34;5083011;28;20268;-61
2022/11/29 05:53:38;;;;;;;32.83;23.07;;;;;;;4.79;100.00;101216.31;5082208;28;20235;-61
2022/11/29 05:56:10;;;;;;;31.53;23.57;;;;;;;4.84;100.00;101218.16;5079623;28;20234;-61
2022/11/29 05:58:43;;;;;;;32.80;23.13;;;;;;;4.89;100.00;101216.59;5080456;28;20329;-61
2022/11/29 06:01:18;;;;;;;32.77;21.77;;;;;;;4.82;100.00;101225.06;5063865;28;20263;-61
2022/11/29 06:03:54;;;;;;;36.20;24.90;;;;;;;4.55;100.00;101223.34;5073622;28;20234;-61
2022/11/29 06:06:29;;;;;;;35.53;22.83;;;;;;;4.65;100.00;101224.53;5062804;28;20317;-60
2022/11/29 06:09:00;;;;;;;29.70;22.07;;;;;;;4.48;100.00;101221.41;5077529;28;20243;-61
2022/11/29 06:11:32;;;;;;;39.27;23.80;;;;;;;4.60;100.00;101226.09;5080657;28;20684;-60
2022/11/29 06:14:04;;;;;;;41.93;23.43;;;;;;;4.67;100.00;101235.84;5071444;28;20332;-61
2022/11/29 06:16:57;;;;;;;32.90;23.33;;;;;;;4.46;100.00;101244.78;5054463;28;20232;-60
2022/11/29 06:19:58;;;;;;;32.90;23.00;;;;;;;4.42;100.00;101232.50;5016692;28;20275;-60
2022/11/29 06:22:43;;;;;;;32.53;22.67;;;;;;;4.36;100.00;101247.03;5072152;28;20226;-60
2022/11/29 06:25:19;;;;;;;33.77;22.87;;;;;;;4.46;100.00;101243.91;5078434;28;20605;-60
2022/11/29 06:27:58;;;;;;;35.23;24.07;;;;;;;4.59;100.00;101245.13;5082420;28;20947;-60
2022/11/29 06:30:27;;;;;;;36.63;23.93;;;;;;;4.74;100.00;101249.13;5072881;28;20241;-60
2022/11/29 06:33:00;;;;;;;31.87;22.67;;;;;;;4.49;100.00;101254.34;5072948;28;20231;-61
2022/11/29 06:35:44;;;;;;;35.00;23.43;;;;;;;4.65;100.00;101253.16;5065479;28;20251;-61
2022/11/29 06:38:15;;;;;;;30.80;22.53;;;;;;;4.67;100.00;101261.84;5063219;28;20235;-60
2022/11/29 06:40:43;;;;;;;40.97;25.97;;;;;;;4.71;100.00;101256.81;5069511;28;20242;-60
2022/11/29 06:43:10;;;;;;;33.17;23.47;;;;;;;4.85;100.00;101259.84;5058589;28;20237;-61
2022/11/29 06:45:38;;;;;;;31.77;23.73;;;;;;;5.05;100.00;101269.97;5062076;28;20768;-63
2022/11/29 06:48:06;;;;;;;30.90;22.30;;;;;;;4.92;100.00;101266.13;5057563;28;20223;-60
2022/11/29 06:50:41;;;;;;;35.13;23.20;;;;;;;4.91;100.00;101270.41;5062062;28;20231;-61
2022/11/29 06:53:11;;;;;;;34.03;23.13;;;;;;;4.95;100.00;101276.59;5057578;28;20227;-61
2022/11/29 06:55:44;;;;;;;34.27;22.70;;;;;;;4.90;100.00;101275.59;5061174;28;20235;-60
2022/11/29 06:58:17;;;;;;;32.23;22.70;;;;;;;4.75;100.00;101278.59;5054472;28;20258;-60
2022/11/29 07:00:50;;;;;;;31.37;22.07;;;;;;;4.77;100.00;101280.44;5056619;28;20322;-60
2022/11/29 07:03:42;;;;;;;36.87;24.33;;;;;;;4.64;100.00;101280.88;5059988;28;20675;-61
2022/11/29 07:06:14;;;;;;;43.33;24.70;;;;;;;4.47;100.00;101285.53;5060381;28;20235;-61
2022/11/29 07:08:42;;;;;;;41.30;23.33;;;;;;;4.44;100.00;101280.22;5058308;28;20233;-60
2022/11/29 07:11:12;;;;;;;34.83;22.67;;;;;;;4.37;100.00;101285.19;5075986;28;20227;-60
2022/11/29 07:13:40;;;;;;;32.20;23.37;;;;;;;4.28;100.00;101281.44;5067718;28;20304;-61
2022/11/29 07:16:11;;;;;;;34.03;23.40;;;;;;;4.36;100.00;101286.03;5068788;28;20231;-61
2022/11/29 07:18:45;;;;;;;35.63;23.33;;;;;;;4.46;100.00;101288.09;5077582;28;20234;-61
2022/11/29 07:21:17;;;;;;;38.77;22.07;;;;;;;4.85;100.00;101290.19;5072121;28;20557;-60
2022/11/29 07:23:51;;;;;;;33.07;20.87;;;;;;;5.12;100.00;101291.00;5066493;28;20347;-60
2022/11/29 07:26:23;;;;;;;31.50;21.43;;;;;;;5.02;100.00;101294.19;5049401;28;20239;-61
2022/11/29 07:29:01;;;;;;;33.93;23.47;;;;;;;4.64;100.00;101290.41;5087426;28;20239;-61
2022/11/29 07:31:36;;;;;;;31.77;22.87;;;;;;;4.51;100.00;101286.50;5062592;28;20822;-61
2022/11/29 07:34:10;;;;;;;33.53;22.00;;;;;;;5.00;100.00;101295.84;5067252;28;20226;-62
2022/11/29 07:36:45;;;;;;;34.37;21.97;;;;;;;4.81;100.00;101298.72;5064820;28;20249;-61
2022/11/29 07:39:23;;;;;;;31.27;22.27;;;;;;;4.53;100.00;101308.25;5060190;28;20614;-61
2022/11/29 07:41:56;;;;;;;28.80;21.70;;;;;;;4.97;100.00;101306.16;5070807;28;20325;-61
2022/11/29 07:44:27;;;;;;;29.97;22.60;;;;;;;4.72;100.00;101305.41;5075737;28;20540;-62
2022/11/29 07:46:54;;;;;;;34.77;23.47;;;;;;;4.72;100.00;101310.59;5080182;28;20237;-61
2022/11/29 07:49:21;;;;;;;30.63;21.63;;;;;;;4.61;100.00;101311.09;5071319;28;20235;-62
2022/11/29 07:51:50;;;;;;;30.33;22.23;;;;;;;4.79;100.00;101315.16;5068322;28;20245;-62
2022/11/29 07:54:18;;;;;;;33.47;21.40;;;;;;;4.69;100.00;101318.28;5075033;28;20230;-62
2022/11/29 07:56:45;;;;;;;32.67;22.63;;;;;;;4.54;100.00;101321.28;5076980;28;20297;-61
2022/11/29 07:59:13;;;;;;;31.40;22.87;;;;;;;4.57;100.00;101320.53;5063300;28;20234;-61
2022/11/29 08:01:40;;;;;;;37.30;22.97;;;;;;;5.02;100.00;101325.44;5065678;28;20230;-61
2022/11/29 08:04:08;;;;;;;36.37;23.63;;;;;;;4.84;100.00;101319.63;5079227;28;20226;-60
2022/11/29 08:06:35;;;;;;;30.30;22.60;;;;;;;4.75;100.00;101321.09;5075432;28;20735;-61
2022/11/29 08:09:05;;;;;;;29.83;22.30;;;;;;;4.85;100.00;101326.63;5082096;28;20315;-61
2022/11/29 08:11:32;;;;;;;35.23;22.60;;;;;;;4.92;100.00;101325.97;5069466;28;20736;-62
2022/11/29 08:14:00;;;;;;;37.67;23.20;;;;;;;4.92;100.00;101331.19;5080172;28;20231;-60
2022/11/29 08:16:27;;;;;;;29.57;21.63;;;;;;;4.68;100.00;101333.88;5077468;28;20864;-61
2022/11/29 08:18:54;;;;;;;33.13;22.43;;;;;;;4.55;100.00;101329.97;5070471;28;20313;-61
2022/11/29 08:21:21;;;;;;;40.73;24.37;;;;;;;4.45;100.00;101325.28;5075430;28;20234;-61
2022/11/29 08:23:49;;;;;;;38.53;24.70;;;;;;;4.48;100.00;101331.47;5070008;28;20235;-61
2022/11/29 08:26:20;;;;;;;32.90;21.37;;;;;;;4.51;100.00;101333.31;5064338;28;20869;-61
2022/11/29 08:28:51;;;;;;;35.73;23.27;;;;;;;4.38;100.00;101344.13;5069420;28;20364;-61
2022/11/29 08:31:19;;;;;;;33.17;22.63;;;;;;;4.58;100.00;101339.59;5071609;28;20227;-60
2022/11/29 08:33:46;;;;;;;38.53;24.80;;;;;;;4.79;100.00;101340.28;5063784;28;20223;-60
2022/11/29 08:36:18;;;;;;;35.00;22.77;;;;;;;4.63;100.00;101351.91;5066099;28;20771;-60
2022/11/29 08:38:45;;;;;;;34.17;22.87;;;;;;;4.75;100.00;101352.31;5057634;28;20224;-63
2022/11/29 08:41:14;;;;;;;34.87;21.67;;;;;;;5.01;100.00;101340.13;5060078;28;20223;-62
2022/11/29 08:43:42;;;;;;;31.30;21.83;;;;;;;4.76;100.00;101338.47;5061347;28;20237;-61
2022/11/29 08:46:09;;;;;;;30.47;21.53;;;;;;;4.97;100.00;101340.88;5054275;28;20234;-62
2022/11/29 08:48:36;;;;;;;32.80;22.97;;;;;;;4.74;100.00;101340.16;5061799;28;20238;-61
2022/11/29 08:51:04;;;;;;;29.63;21.77;;;;;;;4.58;100.00;101340.47;5059661;28;20684;-60
2022/11/29 08:53:40;;;;;;;32.37;22.73;;;;;;;4.72;100.00;101341.81;5052636;28;20247;-61
2022/11/29 08:56:07;;;;;;;37.93;26.77;;;;;;;4.87;100.00;101345.75;5078777;28;20234;-61
2022/11/29 08:58:34;;;;;;;30.40;21.67;;;;;;;4.82;100.00;101345.59;5059691;28;20667;-60
2022/11/29 09:01:03;;;;;;;33.57;22.03;;;;;;;4.77;100.00;101342.88;5063852;28;20320;-60
2022/11/29 09:06:16;;;;;;;37.63;22.17;;;;;;;4.90;100.00;101345.84;5057737;28;20279;-61
2022/11/29 09:08:43;;;;;;;39.23;22.73;;;;;;;5.17;100.00;101351.91;5069850;28;20218;-62
2022/11/29 09:11:13;;;;;;;41.03;21.97;;;;;;;5.07;100.00;101355.06;5064553;28;20254;-61
2022/11/29 09:13:40;;;;;;;27.53;22.17;;;;;;;4.97;100.00;101353.00;5067734;28;20793;-62
2022/11/29 09:16:10;;;;;;;32.17;20.17;;;;;;;4.94;100.00;101351.19;5059589;28;20243;-61
2022/11/29 09:18:38;;;;;;;37.03;22.83;;;;;;;4.97;100.00;101363.41;5062065;28;20689;-61
2022/11/29 09:21:06;;;;;;;36.17;22.93;;;;;;;5.01;100.00;101360.06;5081523;28;20227;-61
2022/11/29 09:23:34;;;;;;;33.37;21.80;;;;;;;4.88;100.00;101365.72;5082843;28;20325;-61
2022/11/29 09:26:00;;;;;;;35.87;22.07;;;;;;;5.12;100.00;101363.88;5070931;28;20250;-62
2022/11/29 09:28:28;;;;;;;33.83;22.83;;;;;;;4.98;100.00;101365.16;5078575;28;20336;-63
2022/11/29 09:30:55;;;;;;;32.83;23.77;;;;;;;4.91;100.00;101360.59;5061499;28;20228;-61
2022/11/29 09:33:23;;;;;;;39.40;22.80;;;;;;;5.00;100.00;101363.50;5063106;28;20223;-61
2022/11/29 09:35:50;;;;;;;37.20;22.95;;;;;;;5.03;100.00;101366.22;5076908;28;20292;-60
2022/11/29 09:38:17;;;;;;;32.10;23.60;;;;;;;5.15;100.00;101363.97;5075568;28;21063;-62
2022/11/29 09:40:48;;;;;;;32.30;22.47;;;;;;;5.13;100.00;101368.28;5076767;28;20320;-60
2022/11/29 09:43:24;;;;;;;32.63;23.17;;;;;;;5.30;100.00;101362.69;5070033;28;20255;-61
2022/11/29 09:45:57;;;;;;;30.63;22.63;;;;;;;5.46;100.00;101371.00;5066557;28;20240;-61
2022/11/29 09:48:37;;;;;;;33.47;21.20;;;;;;;5.33;100.00;101368.00;5072926;28;20243;-62
2022/11/29 09:51:14;;;;;;;29.47;22.20;;;;;;;5.18;100.00;101366.69;5063778;28;20227;-61
2022/11/29 09:53:50;;;;;;;27.60;20.33;;;;;;;5.29;100.00;101360.94;5063060;28;20264;-61
2022/11/29 09:56:22;;;;;;;30.73;21.60;;;;;;;5.29;100.00;101356.59;5070017;28;20238;-61
2022/11/29 09:58:54;;;;;;;41.70;21.63;;;;;;;5.54;100.00;101358.22;5061504;28;20252;-62
2022/11/29 10:01:24;;;;;;;34.70;23.80;;;;;;;5.57;100.00;101365.25;5059113;28;20230;-61
2022/11/29 10:03:54;;;;;;;34.73;23.23;;;;;;;5.49;100.00;101365.91;5068822;28;20239;-61
2022/11/29 10:06:25;;;;;;;31.77;23.23;;;;;;;5.38;100.00;101366.44;5059085;28;20234;-61
2022/11/29 10:08:57;;;;;;;33.03;22.03;;;;;;;5.52;100.00;101375.53;5054004;28;20989;-61
2022/11/29 10:11:28;;;;;;;31.60;20.90;;;;;;;5.45;100.00;101366.66;5060342;28;20241;-61
2022/11/29 10:13:59;;;;;;;35.93;22.90;;;;;;;5.45;100.00;101373.59;5070504;28;20286;-61
2022/11/29 10:16:41;;;;;;;29.83;22.00;;;;;;;5.54;100.00;101373.84;5060672;28;20230;-60
2022/11/29 10:19:16;;;;;;;33.67;21.37;;;;;;;5.39;100.00;101378.59;5068829;28;20226;-61
2022/11/29 10:21:45;;;;;;;29.90;21.40;;;;;;;5.47;100.00;101377.09;5061574;28;20226;-60
2022/11/29 10:24:16;;;;;;;34.67;23.50;;;;;;;5.47;100.00;101382.31;5061930;28;20432;-61
2022/11/29 10:26:43;;;;;;;31.67;23.10;;;;;;;5.93;100.00;101373.25;5062877;28;20586;-60
2022/11/29 10:29:13;;;;;;;37.93;23.33;;;;;;;5.83;100.00;101379.03;5062108;28;20323;-61
2022/11/29 10:31:42;;;;;;;36.90;23.13;;;;;;;5.84;100.00;101380.81;5062094;28;20239;-61
2022/11/29 10:34:14;;;;;;;39.37;24.47;;;;;;;5.71;100.00;101384.75;5059769;28;20237;-61
2022/11/29 10:36:44;;;;;;;39.50;24.93;;;;;;;5.81;100.00;101393.72;5067850;28;20238;-61
2022/11/29 10:39:14;;;;;;;34.13;23.67;;;;;;;5.64;100.00;101391.50;5067302;28;20230;-60
2022/11/29 10:41:41;;;;;;;30.10;22.27;;;;;;;5.64;100.00;101391.50;5061237;28;20254;-60
2022/11/29 10:44:12;;;;;;;35.13;23.27;;;;;;;5.91;100.00;101390.56;5061662;28;20755;-60
2022/11/29 10:46:39;;;;;;;35.23;23.13;;;;;;;5.52;100.00;101391.16;5075539;28;20318;-60
2022/11/29 10:49:12;;;;;;;34.30;22.33;;;;;;;5.84;100.00;101386.88;5066047;28;20301;-61
2022/11/29 10:51:40;;;;;;;32.40;23.90;;;;;;;5.98;100.00;101384.72;5063901;28;20304;-61
2022/11/29 10:54:24;;;;;;;31.53;22.10;;;;;;;5.83;100.00;101394.69;5066661;28;20255;-61
2022/11/29 10:56:52;;;;;;;35.97;23.93;;;;;;;5.51;100.00;101381.59;5074970;28;20234;-60
2022/11/29 10:59:25;;;;;;;33.80;24.20;;;;;;;5.43;100.00;101377.84;5077189;28;20254;-61
2022/11/29 11:01:52;;;;;;;33.27;22.50;;;;;;;5.56;100.00;101387.81;5070381;28;20298;-61
2022/11/29 11:04:28;;;;;;;32.00;23.00;;;;;;;5.60;100.00;101389.66;5061412;28;20679;-60
2022/11/29 11:06:56;;;;;;;34.03;22.80;;;;;;;5.86;100.00;101386.91;5075389;28;20229;-61
2022/11/29 11:09:28;;;;;;;39.97;23.57;;;;;;;5.70;100.00;101391.69;5071691;28;20318;-61
2022/11/29 11:11:58;;;;;;;31.87;22.53;;;;;;;5.92;100.00;101389.72;5063419;28;20322;-61
2022/11/29 11:14:28;;;;;;;34.17;22.97;;;;;;;5.87;100.00;101384.38;5055217;28;20281;-60
2022/11/29 11:16:55;;;;;;;35.47;21.47;;;;;;;6.01;100.00;101392.63;5067118;28;20313;-60
2022/11/29 11:19:32;;;;;;;33.30;21.57;;;;;;;5.90;100.00;101386.19;5065747;28;20447;-61
2022/11/29 11:22:00;;;;;;;37.83;23.80;;;;;;;5.85;100.00;101390.38;5060835;28;20590;-61
2022/11/29 11:24:29;;;;;;;33.23;23.03;;;;;;;5.91;100.00;101390.56;5069741;28;20254;-63
2022/11/29 11:26:56;;;;;;;31.73;22.73;;;;;;;5.73;100.00;101383.09;5069581;28;20226;-60
2022/11/29 11:29:25;;;;;;;36.77;23.40;;;;;;;5.68;100.00;101387.28;5069311;28;20226;-61
2022/11/29 11:31:54;;;;;;;39.53;24.30;;;;;;;5.93;100.00;101391.50;5065066;28;20765;-63
2022/11/29 11:34:32;;;;;;;38.23;24.83;;;;;;;6.00;100.00;101393.44;5082093;28;20291;-61
2022/11/29 11:37:27;;;;;;;52.43;26.87;;;;;;;5.59;100.00;101395.72;5069815;28;20303;-60
2022/11/29 11:39:56;;;;;;;43.67;23.43;;;;;;;5.66;100.00;101392.44;5022977;28;20369;-61